Latest Weather Observations for Stenhouse Bay

IDS60801

Issued at 1:01 pm CDT Tuesday 17 January 2017 (issued every 30 minutes, with the page automatically refreshed every 10 minutes)

About weather observations | Map of weather stations | Latest weather observations for SA | Other Formats
Station Details ID: 022049 Name: STENHOUSE BAY Lat: -35.28 Lon: 136.94 Height: 42.0 m
Data from the previous 72 hours. | See also: Recent months at Stenhouse Bay
Date/Time
CDT
Temp
°C
App
Temp
°C
Dew
Point
°C
Rel
Hum
%
Delta-T
°C
Wind Press
QNH
hPa
Press
MSL
hPa
Rain since
9am
mm
Dir  Spd
km/h
Gust
km/h
Spd
kts
Gust
kts
17/12:45pm 29.4 30.0 16.9 47 7.9 WSW 9 17 5 9 1006.9 1006.7 0.0
17/12:30pm 35.3 32.0 11.0 23 14.3 NNW 19 24 10 13 1007.0 1006.8 0.0
17/12:00pm 34.9 32.5 11.3 24 14.0 NNW 15 20 8 11 1007.2 1007.0 0.0
17/11:30am 33.5 30.5 10.8 25 13.3 NW 17 22 9 12 1007.2 1007.0 0.0
17/11:00am 34.5 31.6 11.0 24 13.8 N 17 24 9 13 1007.3 1007.1 0.0
17/10:30am 33.1 31.1 12.7 29 12.2 N 15 24 8 13 1007.3 1007.1 0.0
17/10:00am 30.3 28.7 14.0 37 9.8 N 15 20 8 11 1007.3 1007.1 0.0
17/09:30am 26.3 25.7 14.7 48 7.0 N 11 17 6 9 1007.3 1007.1 0.0
17/09:00am 24.0 25.1 16.5 63 4.6 NE 6 7 3 4 1007.3 1007.1 0.0
17/08:30am 23.6 23.3 15.4 60 4.9 NE 11 13 6 7 1007.1 1006.9 0.0
17/08:00am 22.9 22.2 15.5 63 4.4 NE 13 15 7 8 1006.8 1006.6 0.0
17/07:30am 22.2 22.5 16.9 72 3.3 NNE 11 15 6 8 1006.8 1006.6 0.0
17/07:00am 21.3 22.0 17.9 81 2.1 NE 11 13 6 7 1006.8 1006.6 0.0
17/06:30am 21.4 22.2 17.2 77 2.6 E 9 11 5 6 1006.7 1006.5 0.0
17/06:00am 21.4 21.5 16.6 74 2.9 ESE 11 11 6 6 1006.8 1006.6 0.0
17/05:30am 21.6 21.4 14.7 65 4.1 ESE 9 11 5 6 1006.7 1006.5 0.0
17/05:00am 21.2 21.4 14.8 67 3.8 ESE 7 15 4 8 1006.6 1006.4 0.0
17/04:30am 21.3 21.4 14.5 65 4.0 E 7 9 4 5 1006.4 1006.2 0.0
17/04:00am 21.7 21.5 15.8 69 3.5 ENE 11 13 6 7 1006.4 1006.2 0.0
17/03:30am 21.8 21.8 15.2 66 3.9 ENE 9 13 5 7 1006.6 1006.4 0.0
17/03:00am 21.5 21.3 14.6 65 4.1 ENE 9 11 5 6 1006.9 1006.7 0.0
17/02:30am 21.7 21.5 13.6 60 4.7 E 7 9 4 5 1007.4 1007.2 0.0
17/02:00am 21.8 21.7 13.4 59 4.8 ENE 6 7 3 4 1007.8 1007.6 0.0
17/01:30am 21.3 21.3 13.7 62 4.4 NE 6 7 3 4 1008.1 1007.9 0.0
17/01:00am 21.1 21.0 14.0 64 4.1 NE 7 9 4 5 1008.3 1008.1 0.0
17/12:30am 21.1 21.7 15.9 72 3.1 ENE 7 9 4 5 1008.7 1008.5 0.0
17/12:00am 21.7 22.4 16.0 70 3.4 ENE 7 11 4 6 1009.0 1008.8 0.0
 
Date/Time
CDT
Temp
°C
App
Temp
°C
Dew
Point
°C
Rel
Hum
%
Delta-T
°C
Wind Press
QNH
hPa
Press
MSL
hPa
Rain since
9am
mm
Dir  Spd
km/h
Gust
km/h
Spd
kts
Gust
kts
16/11:30pm 22.6 22.6 13.7 57 5.2 E 6 6 3 3 1009.2 1009.0 0.0
16/11:00pm 24.7 23.5 9.4 38 8.3 E 6 6 3 3 1009.3 1009.1 0.0
16/10:30pm 24.2 24.1 12.2 47 6.9 ENE 4 6 2 3 1009.5 1009.3 0.0
16/10:00pm 23.7 23.9 13.0 51 6.2 SE 4 6 2 3 1009.6 1009.4 0.0
16/09:30pm 23.3 23.5 13.2 53 5.9 ESE 4 6 2 3 1009.5 1009.3 0.0
16/09:00pm 23.4 23.4 13.6 54 5.7 SE 6 7 3 4 1009.5 1009.3 0.0
16/08:30pm 24.3 24.0 13.2 50 6.5 ESE 7 9 4 5 1009.6 1009.4 0.0
16/08:00pm 24.2 24.5 14.6 55 5.7 SE 6 7 3 4 1009.5 1009.3 0.0
16/07:30pm 25.0 25.4 14.8 53 6.1 E 6 7 3 4 1009.3 1009.1 0.0
16/07:00pm 25.1 25.3 15.7 56 5.7 E 9 13 5 7 1009.1 1008.9 0.0
16/06:30pm 25.3 25.7 16.4 57 5.5 ESE 9 15 5 8 1009.0 1008.8 0.0
16/06:00pm 25.4 25.4 16.3 57 5.6 ESE 11 17 6 9 1009.0 1008.8 0.0
16/05:30pm 26.0 25.8 15.7 53 6.3 SE 11 15 6 8 1009.1 1008.9 0.0
16/05:00pm 26.4 26.0 16.1 53 6.3 ESE 13 17 7 9 1009.3 1009.1 0.0
16/04:30pm 25.9 26.5 17.8 61 5.1 ESE 11 15 6 8 1009.5 1009.3 0.0
16/04:00pm 25.6 25.9 18.0 63 4.8 SE 13 17 7 9 1009.5 1009.3 0.0
16/03:30pm 25.1 25.1 17.1 61 5.0 SSE 13 17 7 9 1009.8 1009.6 0.0
16/03:00pm 25.0 24.6 17.2 62 4.9 SSE 15 17 8 9 1010.1 1009.9 0.0
16/02:30pm 24.8 24.6 15.7 57 5.5 S 11 15 6 8 1010.6 1010.4 0.0
16/02:00pm 24.8 25.1 18.0 66 4.3 SSW 13 17 7 9 1011.0 1010.8 0.0
16/01:30pm 25.0 24.7 16.4 59 5.3 S 13 17 7 9 1011.2 1011.0 0.0
16/01:00pm 26.5 27.4 16.7 55 6.1 SSW 7 13 4 7 1011.5 1011.3 0.0
16/12:58pm 27.0 27.5 16.6 53 6.5 WSW 9 20 5 11 1011.5 1011.3 0.0
16/12:30pm 32.0 28.5 10.1 26 12.5 NNW 19 32 10 17 1011.4 1011.2 0.0
16/12:00pm 30.9 27.4 10.8 29 11.6 N 20 30 11 16 1011.6 1011.4 0.0
16/11:30am 30.2 26.7 10.2 29 11.4 NNW 19 28 10 15 1011.9 1011.7 0.0
16/11:00am 29.6 26.2 10.7 31 10.8 N 19 24 10 13 1012.4 1012.2 0.0
16/10:30am 28.6 25.4 11.2 34 10.0 NNW 19 28 10 15 1012.5 1012.3 0.0
16/10:00am 27.9 26.4 13.1 40 8.7 N 13 20 7 11 1012.6 1012.4 0.0
16/09:30am 25.7 24.3 13.5 46 7.2 N 13 20 7 11 1012.9 1012.7 0.0
16/09:00am 23.7 23.1 14.7 57 5.4 N 11 15 6 8 1012.7 1012.5 0.0
16/08:30am 21.3 20.3 14.7 66 3.9 NE 13 15 7 8 1013.0 1012.8 0.0
16/08:00am 20.2 18.6 15.0 72 3.1 NE 17 20 9 11 1012.8 1012.6 0.0
16/07:30am 19.5 17.7 15.4 77 2.4 NE 19 22 10 12 1012.7 1012.5 0.0
16/07:00am 19.0 17.4 16.0 83 1.8 ENE 19 22 10 12 1012.5 1012.3 0.0
16/06:30am 18.8 17.2 16.0 84 1.7 ENE 19 24 10 13 1012.4 1012.2 0.0
16/06:00am 18.6 17.1 15.3 81 1.9 ENE 17 22 9 12 1012.5 1012.3 0.0
16/05:30am 18.3 17.1 15.0 81 1.9 E 15 20 8 11 1012.7 1012.5 0.0
16/05:00am 18.1 16.4 14.8 81 1.9 E 17 20 9 11 1012.6 1012.4 0.0
16/04:30am 18.2 17.0 15.1 82 1.8 E 15 20 8 11 1012.6 1012.4 0.0
16/04:00am 18.0 16.0 14.9 82 1.8 E 19 24 10 13 1012.6 1012.4 0.0
16/03:30am 17.8 15.1 14.7 82 1.8 E 22 28 12 15 1012.7 1012.5 0.0
16/03:00am 17.8 15.1 14.5 81 1.9 E 22 28 12 15 1013.0 1012.8 0.0
16/02:30am 17.8 14.7 14.5 81 1.9 E 24 30 13 16 1013.1 1012.9 0.0
16/02:00am 17.7 14.6 14.4 81 1.9 E 24 32 13 17 1013.5 1013.3 0.0
16/01:30am 17.6 14.0 14.3 81 1.9 E 26 32 14 17 1013.9 1013.7 0.0
16/01:00am 17.5 13.8 14.0 80 2.0 E 26 32 14 17 1014.2 1014.0 0.0
16/12:30am 17.4 14.2 14.3 82 1.8 ESE 24 30 13 16 1014.5 1014.3 0.0
16/12:00am 17.3 13.9 13.8 80 2.0 ESE 24 32 13 17 1014.5 1014.3 0.0
 
Date/Time
CDT
Temp
°C
App
Temp
°C
Dew
Point
°C
Rel
Hum
%
Delta-T
°C
Wind Press
QNH
hPa
Press
MSL
hPa
Rain since
9am
mm
Dir  Spd
km/h
Gust
km/h
Spd
kts
Gust
kts
15/11:30pm 17.2 13.6 13.1 77 2.3 ESE 24 30 13 16 1014.8 1014.6 0.0
15/11:00pm 17.5 13.5 13.0 75 2.5 ESE 26 32 14 17 1015.1 1014.9 0.0
15/10:30pm 18.0 14.9 13.3 74 2.7 ESE 22 28 12 15 1015.3 1015.1 0.0
15/10:00pm 18.3 16.9 14.4 78 2.3 SSE 15 20 8 11 1015.5 1015.3 0.0
15/09:30pm 18.0 16.8 14.1 78 2.2 SSE 13 17 7 9 1015.5 1015.3 0.0
15/09:00pm 18.0 17.4 13.5 75 2.6 SE 9 11 5 6 1015.6 1015.4 0.0
15/08:30pm 18.5 17.3 12.9 70 3.1 SSE 11 13 6 7 1016.0 1015.8 0.0
15/08:00pm 19.2 17.6 12.7 66 3.7 SSE 13 15 7 8 1015.9 1015.7 0.0
15/07:30pm 19.9 18.3 12.7 63 4.1 SSE 13 17 7 9 1015.9 1015.7 0.0
15/07:00pm 20.0 18.3 12.5 62 4.2 SSE 13 17 7 9 1016.0 1015.8 0.0
15/06:30pm 20.7 19.0 12.4 59 4.7 SSE 13 17 7 9 1016.1 1015.9 0.0
15/06:00pm 20.7 18.6 12.4 59 4.7 SSE 15 19 8 10 1016.3 1016.1 0.0
15/05:30pm 20.8 18.6 12.2 58 4.8 SSE 15 17 8 9 1016.5 1016.3 0.0
15/05:00pm 20.9 18.8 12.3 58 4.8 SSE 15 19 8 10 1016.7 1016.5 0.0
15/04:30pm 21.1 19.3 12.0 56 5.1 SSE 13 17 7 9 1017.2 1017.1 0.0
15/04:00pm 21.4 19.8 11.7 54 5.4 SE 11 15 6 8 1017.6 1017.5 0.0
15/03:30pm 21.6 19.7 11.9 54 5.4 ESE 13 17 7 9 1017.7 1017.6 0.0
15/03:00pm 22.2 19.9 11.9 52 5.8 E 15 20 8 11 1018.0 1017.9 0.0
15/02:30pm 21.5 19.1 11.5 53 5.6 ESE 15 19 8 10 1018.4 1018.3 0.0
15/02:00pm 21.5 19.6 11.8 54 5.4 SE 13 20 7 11 1018.6 1018.5 0.0
15/01:30pm 21.5 19.2 11.8 54 5.4 SE 15 20 8 11 1018.9 1018.8 0.0
15/01:00pm 20.7 18.0 11.6 56 5.1 SE 17 20 9 11 1019.1 1019.0 0.0
15/12:30pm 21.8 19.4 11.5 52 5.7 SE 15 20 8 11 1019.4 1019.3 0.0
15/12:00pm 21.4 19.0 11.4 53 5.5 ESE 15 20 8 11 1019.5 1019.4 0.0
15/11:30am 21.1 18.6 10.9 52 5.6 ESE 15 20 8 11 1019.6 1019.5 0.0
15/11:00am 20.1 17.9 10.8 55 5.1 E 13 17 7 9 1019.9 1019.8 0.0
15/10:30am 19.4 18.3 10.7 57 4.7 E 7 13 4 7 1020.2 1020.1 0.0
15/10:00am 19.0 17.9 10.8 59 4.4 ESE 7 11 4 6 1020.4 1020.3 0.0
15/09:30am 18.1 16.9 10.2 60 4.2 SE 7 13 4 7 1020.4 1020.3 0.0
15/09:00am 17.8 16.7 10.7 63 3.8 SSE 7 13 4 7 1020.6 1020.5 0.0
15/08:30am 17.2 16.3 10.6 65 3.5 ESE 6 9 3 5 1020.5 1020.4 0.0
15/08:00am 16.9 15.9 10.3 65 3.5 ESE 6 9 3 5 1020.3 1020.2 0.0
15/07:30am 16.6 15.5 10.5 67 3.2 SE 7 9 4 5 1019.9 1019.8 0.0
15/07:00am 16.3 14.7 10.2 67 3.2 ESE 9 15 5 8 1019.7 1019.6 0.0
15/06:30am 16.2 14.2 10.3 68 3.1 ESE 11 17 6 9 1019.4 1019.3 0.0
15/06:00am 16.1 15.4 10.0 67 3.2 E 4 6 2 3 1019.1 1019.0 0.0
15/05:30am 16.1 13.8 10.4 69 3.0 ESE 13 19 7 10 1019.0 1018.9 0.0
15/05:00am 16.1 13.8 10.4 69 3.0 SE 13 20 7 11 1018.5 1018.4 0.0
15/04:30am 16.2 13.9 10.3 68 3.1 SE 13 24 7 13 1018.3 1018.2 0.0
15/04:00am 16.3 13.7 10.6 69 3.0 ESE 15 22 8 12 1017.9 1017.8 0.0
15/03:30am 16.3 14.4 10.4 68 3.1 SE 11 17 6 9 1018.3 1018.2 0.0
15/03:00am 16.4 13.6 10.0 66 3.4 SSE 15 24 8 13 1018.4 1018.3 0.0
15/02:30am 16.5 13.7 10.1 66 3.4 SSE 15 22 8 12 1018.5 1018.4 0.0
15/02:00am 16.6 13.6 10.5 67 3.2 SSE 17 22 9 12 1018.7 1018.6 0.0
15/01:30am 16.6 13.6 10.5 67 3.2 SSE 17 22 9 12 1018.9 1018.8 0.0
15/01:00am 16.8 13.9 10.9 68 3.2 SSE 17 22 9 12 1019.0 1018.9 0.0
15/12:30am 16.5 13.7 10.1 66 3.4 SSE 15 22 8 12 1018.9 1018.8 0.0
15/12:00am 16.8 13.4 10.6 67 3.3 SSE 19 28 10 15 1018.9 1018.8 0.0
 
Date/Time
CDT
Temp
°C
App
Temp
°C
Dew
Point
°C
Rel
Hum
%
Delta-T
°C
Wind Press
QNH
hPa
Press
MSL
hPa
Rain since
9am
mm
Dir  Spd
km/h
Gust
km/h
Spd
kts
Gust
kts
14/11:30pm 16.6 13.0 9.8 64 3.6 S 19 26 10 14 1019.2 1019.1 0.0
14/11:00pm 16.8 14.1 10.2 65 3.5 SSE 15 22 8 12 1019.3 1019.2 0.0
14/10:30pm 16.7 13.5 9.9 64 3.6 SSE 17 24 9 13 1019.3 1019.2 0.0
14/10:00pm 16.9 13.2 10.1 64 3.6 S 20 30 11 16 1019.1 1019.0 0.0
14/09:30pm 17.2 13.5 10.1 63 3.8 S 20 32 11 17 1019.1 1019.0 0.0
14/09:00pm 17.1 12.9 9.8 62 3.8 S 22 33 12 18 1018.7 1018.6 0.0
14/08:30pm 17.2 13.4 11.0 67 3.3 SSW 22 33 12 18 1018.5 1018.4 0.0
14/08:00pm 17.5 13.8 11.5 68 3.3 SSW 22 35 12 19 1018.2 1018.1 0.0
14/07:30pm 18.0 13.7 10.9 63 3.8 SSW 24 33 13 18 1018.1 1018.0 0.0
14/07:00pm 18.7 14.8 10.8 60 4.3 SSW 22 32 12 17 1017.8 1017.7 0.0
14/06:30pm 19.0 15.1 10.8 59 4.4 SW 22 33 12 18 1017.9 1017.8 0.0
14/06:00pm 19.1 14.7 10.4 57 4.7 SW 24 35 13 19 1017.9 1017.8 0.0
14/05:30pm 19.3 14.4 10.0 55 5.0 SW 26 37 14 20 1018.0 1017.9 0.0
14/05:00pm 19.7 14.8 11.2 58 4.7 SW 28 35 15 19 1018.1 1018.0 0.0
14/04:30pm 20.4 15.6 10.2 52 5.5 SW 26 35 14 19 1017.9 1017.8 0.0
14/04:00pm 20.6 15.8 10.4 52 5.5 SW 26 35 14 19 1018.0 1017.9 0.0
14/03:30pm 20.4 15.7 10.5 53 5.4 SW 26 33 14 18 1018.1 1018.0 0.0
14/03:00pm 21.0 16.5 11.3 54 5.4 SW 26 33 14 18 1017.8 1017.7 0.0
14/02:30pm 20.8 16.6 11.2 54 5.3 SW 24 32 13 17 1017.7 1017.6 0.0
14/02:00pm 20.6 16.0 9.5 49 5.9 SW 24 33 13 18 1017.6 1017.5 0.0
14/01:30pm 20.7 16.8 10.8 53 5.4 SW 22 32 12 17 1017.4 1017.3 0.0

Other Formats:

Comma delimited format used in spreadsheet applications
http://www.bom.gov.au/fwo/IDS60801/IDS60801.95806.axf

JavaScript Object Notation format (JSON) in row-major order
http://www.bom.gov.au/fwo/IDS60801/IDS60801.95806.json